SBRJ/SDU METAR and TAF weather

Enter ICAO airport designator
Station Type Date Time Source
SBRJ METAR 2022/01/26 21:00 UTC NOAA

SBRJ 262100Z 19009KT 9999 FEW030 31/23 Q1006


Station Type Date Time Source
SBRJ Decoded METAR 2022/01/26 21:00 UTC NOAA

Rio De Janeiro Aeroporto , Brazil (SBRJ) 22-54S 043-10W
Jan 26, 2022 - 04:00 PM EST / 2022.01.26 2100 UTC
Wind: from the S (190 degrees) at 10 MPH (9 KT):0
Visibility: greater than 7 mile(s):0
Sky conditions: mostly clear
Temperature: 87 F (31 C)
Heat index: 93.9 F (34.4 C):1
Dew Point: 73 F (23 C)
Relative Humidity: 62%
Pressure (altimeter): 29.71 in. Hg (1006 hPa)
ob: SBRJ 262100Z 19009KT 9999 FEW030 31/23 Q1006
cycle: 21

Station Type Date Time Source
SBRJ TAF 2022/01/26 18:33 UTC NOAA

TAF SBRJ 261629Z 2618/2706 17015KT 9999 FEW030 TX31/2618Z TN26/2702Z
BECMG 2618/2620 15010KT
BECMG 2622/2701 32007KT
RMK PHC

Example: see airport list